createdAt,value
2023-01-05T00:00:02.327Z,29.83
2023-01-05T00:02:10.046Z,25.17
2023-01-05T00:06:35.687Z,23.45
2023-01-05T00:08:47.042Z,19.85
2023-01-05T00:11:08.565Z,24.13
2023-01-05T00:13:54.214Z,23.92
2023-01-05T00:16:17.153Z,25.10
2023-01-05T00:18:36.664Z,24.30
2023-01-05T00:20:58.326Z,24.08
2023-01-05T00:23:09.742Z,26.20
2023-01-05T00:25:16.934Z,22.90
2023-01-05T00:27:21.890Z,25.35
2023-01-05T00:29:26.881Z,28.25
2023-01-05T00:31:42.020Z,24.77
2023-01-05T00:33:46.773Z,26.33
2023-01-05T00:35:51.555Z,24.63
2023-01-05T00:37:56.281Z,20.77
2023-01-05T00:40:21.170Z,21.38
2023-01-05T00:42:47.309Z,15.85
2023-01-05T00:45:18.213Z,21.92
2023-01-05T00:47:27.842Z,29.25
2023-01-05T00:49:39.992Z,20.65
2023-01-05T00:51:49.323Z,25.90
2023-01-05T00:54:10.077Z,27.60
2023-01-05T00:56:24.857Z,22.55
2023-01-05T00:59:04.981Z,29.70
2023-01-05T01:01:18.220Z,27.95
2023-01-05T01:03:32.657Z,21.77
2023-01-05T01:05:55.265Z,21.75
2023-01-05T01:08:05.666Z,24.20
2023-01-05T01:10:17.178Z,28.27
2023-01-05T01:12:29.089Z,27.63
2023-01-05T01:14:34.089Z,20.00
2023-01-05T01:16:38.999Z,17.48
2023-01-05T01:18:44.342Z,33.45
2023-01-05T01:20:49.191Z,24.15
2023-01-05T01:22:54.100Z,28.23
2023-01-05T01:25:02.005Z,19.77
2023-01-05T01:27:16.467Z,25.88
2023-01-05T01:29:24.673Z,30.10
2023-01-05T01:31:29.694Z,28.65
2023-01-05T01:33:34.831Z,27.35
2023-01-05T01:35:55.834Z,25.92
2023-01-05T01:38:03.129Z,33.80
2023-01-05T01:40:11.559Z,30.45
2023-01-05T01:42:36.200Z,27.35
2023-01-05T01:44:59.657Z,22.40
2023-01-05T01:49:24.329Z,14.57
2023-01-05T01:51:42.462Z,25.15
2023-01-05T01:53:52.500Z,29.20
2023-01-05T01:56:01.401Z,32.72
2023-01-05T01:58:21.818Z,25.20
2023-01-05T02:00:34.450Z,24.38
2023-01-05T02:02:39.626Z,20.38
2023-01-05T02:05:02.976Z,18.00
2023-01-05T02:07:19.201Z,24.52
2023-01-05T02:09:42.376Z,29.77
2023-01-05T02:11:56.647Z,20.83
2023-01-05T02:14:13.886Z,23.92
2023-01-05T02:16:30.003Z,30.13
2023-01-05T02:18:47.348Z,23.40
2023-01-05T02:21:22.253Z,19.77
2023-01-05T02:24:02.399Z,20.98
2023-01-05T02:26:51.594Z,18.48
2023-01-05T02:29:18.060Z,26.38
2023-01-05T02:31:49.117Z,30.02
2023-01-05T02:34:10.607Z,24.00
2023-01-05T02:36:30.418Z,25.23
2023-01-05T02:38:56.095Z,19.50
2023-01-05T02:41:05.129Z,24.45
2023-01-05T02:43:20.517Z,25.73
2023-01-05T02:45:25.811Z,22.45
2023-01-05T02:47:44.131Z,15.98
2023-01-05T02:49:48.995Z,28.05
2023-01-05T02:52:00.098Z,23.80
2023-01-05T02:54:07.618Z,21.52
2023-01-05T02:56:15.812Z,17.20
2023-01-05T02:58:22.901Z,27.27
2023-01-05T03:00:32.219Z,26.67
2023-01-05T03:02:40.920Z,23.35
2023-01-05T03:04:51.661Z,25.15
2023-01-05T03:06:59.605Z,20.98
2023-01-05T03:09:07.614Z,18.65
2023-01-05T03:11:26.451Z,21.58
2023-01-05T03:13:42.654Z,25.80
2023-01-05T03:15:48.525Z,24.85
2023-01-05T03:17:55.310Z,19.42
2023-01-05T03:20:17.428Z,24.77
2023-01-05T03:22:46.337Z,21.30
2023-01-05T03:25:08.245Z,13.85
2023-01-05T03:27:26.571Z,23.27
2023-01-05T03:29:47.100Z,21.83
2023-01-05T03:32:34.885Z,19.52
2023-01-05T03:35:14.835Z,23.55
2023-01-05T03:37:26.381Z,15.13
2023-01-05T03:39:40.449Z,18.58
2023-01-05T03:41:51.666Z,23.33
2023-01-05T03:44:04.404Z,27.27
2023-01-05T03:46:19.552Z,27.85
2023-01-05T03:48:36.328Z,24.40
2023-01-05T03:50:45.614Z,23.52
2023-01-05T03:52:59.558Z,19.50
2023-01-05T03:55:04.360Z,26.42
2023-01-05T03:57:10.825Z,20.85
2023-01-05T03:59:15.589Z,27.80
2023-01-05T04:01:20.525Z,22.63
2023-01-05T04:03:31.245Z,26.70
2023-01-05T04:05:39.429Z,20.45
2023-01-05T04:07:45.161Z,31.27
2023-01-05T04:09:52.589Z,19.73
2023-01-05T04:11:58.584Z,26.98
2023-01-05T04:14:06.015Z,22.25
2023-01-05T04:16:11.654Z,21.73
2023-01-05T04:18:16.512Z,21.42
2023-01-05T04:20:21.761Z,27.85
2023-01-05T04:22:27.605Z,25.30
2023-01-05T04:24:32.729Z,18.38
2023-01-05T04:26:44.566Z,25.95
2023-01-05T04:28:53.141Z,23.40
2023-01-05T04:31:04.787Z,29.50
2023-01-05T04:33:20.500Z,30.77
2023-01-05T04:35:33.727Z,25.80
2023-01-05T04:39:53.414Z,25.58
2023-01-05T04:42:07.569Z,15.10
2023-01-05T04:44:15.539Z,25.85
2023-01-05T04:46:25.931Z,22.02
2023-01-05T04:48:38.232Z,31.83
2023-01-05T04:51:02.831Z,26.63
2023-01-05T04:53:14.029Z,31.38
2023-01-05T04:55:19.125Z,19.33
2023-01-05T04:57:28.484Z,23.02
2023-01-05T04:59:33.524Z,22.63
2023-01-05T05:01:38.402Z,26.10
2023-01-05T05:03:56.043Z,22.38
2023-01-05T05:06:12.034Z,24.75
2023-01-05T05:08:33.390Z,20.95
2023-01-05T05:10:38.989Z,25.10
2023-01-05T05:13:11.277Z,18.20
2023-01-05T05:15:21.509Z,23.92
2023-01-05T05:17:34.387Z,29.90
2023-01-05T05:19:39.559Z,20.55
2023-01-05T05:21:44.423Z,25.88
2023-01-05T05:23:50.048Z,35.08
2023-01-05T05:25:54.964Z,20.17
2023-01-05T05:28:02.321Z,25.40
2023-01-05T05:30:08.715Z,37.67
2023-01-05T05:32:16.307Z,24.30
2023-01-05T05:34:21.337Z,21.65
2023-01-05T05:36:26.170Z,25.70
2023-01-05T05:38:30.900Z,25.25
2023-01-05T05:40:35.782Z,29.00
2023-01-05T05:42:42.990Z,24.67
2023-01-05T05:44:50.838Z,29.10
2023-01-05T05:46:55.665Z,27.67
2023-01-05T05:49:04.837Z,21.98
2023-01-05T05:51:09.844Z,26.23
2023-01-05T05:53:14.805Z,17.15
2023-01-05T05:55:19.708Z,26.85
2023-01-05T05:57:24.530Z,30.30
2023-01-05T05:59:29.602Z,24.35
2023-01-05T06:01:37.342Z,21.08
2023-01-05T06:03:42.179Z,22.50
2023-01-05T06:05:48.198Z,25.77
2023-01-05T06:07:53.023Z,23.63
2023-01-05T06:09:57.945Z,30.58
2023-01-05T06:12:03.135Z,28.60
2023-01-05T06:14:08.741Z,22.85
2023-01-05T06:16:14.202Z,29.08
2023-01-05T06:18:21.906Z,26.30
2023-01-05T06:20:26.784Z,26.48
2023-01-05T06:22:34.028Z,25.52
2023-01-05T06:24:38.911Z,21.08
2023-01-05T06:26:43.811Z,24.20
2023-01-05T06:28:48.663Z,24.85
2023-01-05T06:30:53.611Z,19.92
2023-01-05T06:32:59.799Z,24.63
2023-01-05T06:35:07.658Z,18.85
2023-01-05T06:37:14.231Z,23.65
2023-01-05T06:39:19.222Z,26.05
2023-01-05T06:41:23.881Z,19.23
2023-01-05T06:43:30.828Z,29.50
2023-01-05T06:45:36.015Z,22.08
2023-01-05T06:47:58.614Z,30.05
2023-01-05T06:50:14.028Z,22.50
2023-01-05T06:52:26.546Z,24.98
2023-01-05T06:54:42.185Z,22.98
2023-01-05T06:56:55.683Z,26.35
2023-01-05T06:59:14.671Z,31.17
2023-01-05T07:01:19.776Z,26.17
2023-01-05T07:03:25.564Z,26.25
2023-01-05T07:05:32.930Z,22.20
2023-01-05T07:07:37.700Z,20.15
2023-01-05T07:09:50.677Z,23.48
2023-01-05T07:12:03.634Z,20.33
2023-01-05T07:14:17.585Z,27.10
2023-01-05T07:16:29.949Z,22.55
2023-01-05T07:18:34.783Z,26.50
2023-01-05T07:20:42.093Z,33.88
2023-01-05T07:22:46.996Z,26.15
2023-01-05T07:24:51.915Z,30.25
2023-01-05T07:27:16.848Z,19.17
2023-01-05T07:29:21.778Z,24.05
2023-01-05T07:31:26.898Z,25.63
2023-01-05T07:33:39.284Z,23.60
2023-01-05T07:37:52.349Z,19.08
2023-01-05T07:39:57.275Z,26.10
2023-01-05T07:42:02.470Z,24.88
2023-01-05T07:44:07.705Z,21.50
2023-01-05T07:46:22.173Z,23.10
2023-01-05T07:48:29.549Z,19.33
2023-01-05T07:50:34.815Z,23.02
2023-01-05T07:52:42.326Z,18.05
2023-01-05T07:54:47.869Z,25.67
2023-01-05T07:56:52.635Z,31.45
2023-01-05T07:58:58.973Z,30.27
2023-01-05T08:01:07.818Z,25.27
2023-01-05T08:03:16.319Z,26.02
2023-01-05T08:05:21.340Z,34.45
2023-01-05T08:07:26.743Z,28.05
2023-01-05T08:09:46.577Z,25.50
2023-01-05T08:11:51.371Z,25.67
2023-01-05T08:14:03.096Z,23.45
2023-01-05T08:16:09.256Z,28.52
2023-01-05T08:18:16.805Z,24.38
2023-01-05T08:20:21.746Z,20.90
2023-01-05T08:22:27.642Z,24.13
2023-01-05T08:24:44.621Z,25.50
2023-01-05T08:26:52.931Z,17.92
2023-01-05T08:29:06.396Z,22.55
2023-01-05T08:31:41.645Z,23.58
2023-01-05T08:33:46.529Z,26.58
2023-01-05T08:35:51.339Z,23.50
2023-01-05T08:37:57.184Z,32.58
2023-01-05T08:40:24.044Z,19.17
2023-01-05T08:42:41.786Z,24.00
2023-01-05T08:45:16.656Z,25.05
2023-01-05T08:47:28.685Z,21.90
2023-01-05T08:49:39.278Z,24.58
2023-01-05T08:51:58.409Z,26.25
2023-01-05T08:54:07.121Z,21.08
2023-01-05T08:56:26.983Z,24.40
2023-01-05T08:58:46.005Z,25.50
2023-01-05T09:00:54.777Z,22.00
2023-01-05T09:05:41.202Z,16.67
2023-01-05T09:07:49.168Z,21.70
2023-01-05T09:10:03.005Z,23.30
2023-01-05T09:12:33.344Z,23.25
2023-01-05T09:14:50.202Z,31.50
2023-01-05T09:17:11.173Z,23.08
2023-01-05T09:19:16.344Z,25.35
2023-01-05T09:21:22.033Z,24.25
2023-01-05T09:23:27.611Z,21.13
2023-01-05T09:25:50.151Z,26.92
2023-01-05T09:28:12.482Z,23.23
2023-01-05T09:30:36.039Z,22.05
2023-01-05T09:32:58.342Z,27.75
2023-01-05T09:35:06.414Z,31.15
2023-01-05T09:37:21.676Z,25.77
2023-01-05T09:39:33.476Z,25.70
2023-01-05T09:44:23.318Z,25.27
2023-01-05T09:46:32.645Z,21.13
2023-01-05T09:48:42.452Z,27.02
2023-01-05T09:50:48.895Z,28.02
2023-01-05T09:53:06.890Z,20.02
2023-01-05T09:55:27.026Z,27.45
2023-01-05T09:57:43.249Z,27.35
2023-01-05T10:00:04.685Z,25.55
2023-01-05T10:02:20.519Z,20.65
2023-01-05T10:04:30.808Z,22.77
2023-01-05T10:06:38.248Z,19.58
2023-01-05T10:08:45.518Z,21.63
2023-01-05T10:11:15.287Z,25.17
2023-01-05T10:13:24.273Z,28.83
2023-01-05T10:15:37.892Z,27.17
2023-01-05T10:17:44.863Z,34.10
2023-01-05T10:19:50.670Z,22.30
2023-01-05T10:22:02.944Z,29.65
2023-01-05T10:24:27.919Z,23.70
2023-01-05T10:27:06.231Z,27.80
2023-01-05T10:29:08.592Z,32.42
2023-01-05T10:31:24.496Z,28.63
2023-01-05T10:33:52.025Z,33.17
2023-01-05T10:36:10.322Z,27.42
2023-01-05T10:38:25.303Z,27.40
2023-01-05T10:42:54.157Z,31.80
2023-01-05T10:45:00.209Z,23.30
2023-01-05T10:47:18.181Z,30.92
2023-01-05T10:49:48.062Z,33.15
2023-01-05T10:52:06.579Z,35.25
2023-01-05T10:57:05.566Z,24.27
2023-01-05T10:59:28.698Z,27.50
2023-01-05T11:01:43.303Z,29.35
2023-01-05T11:06:23.873Z,26.50
2023-01-05T11:08:36.287Z,30.45
2023-01-05T11:10:53.682Z,30.77
2023-01-05T11:13:14.136Z,22.48
2023-01-05T11:15:35.067Z,22.88
2023-01-05T11:17:48.453Z,36.35
2023-01-05T11:20:22.214Z,23.55
2023-01-05T11:22:47.884Z,25.00
2023-01-05T11:25:19.438Z,29.35
2023-01-05T11:27:43.376Z,37.55
2023-01-05T11:29:59.672Z,20.00
2023-01-05T11:32:16.980Z,23.15
2023-01-05T11:34:48.263Z,27.02
2023-01-05T11:37:16.210Z,28.27
2023-01-05T11:39:28.201Z,23.27
2023-01-05T11:41:34.590Z,30.02
2023-01-05T11:43:43.184Z,32.42
2023-01-05T11:45:53.282Z,20.00
2023-01-05T11:48:05.927Z,34.70
2023-01-05T11:50:21.775Z,24.70
2023-01-05T11:52:38.237Z,32.50
2023-01-05T11:54:48.442Z,29.20
2023-01-05T11:57:11.861Z,27.27
2023-01-05T11:59:55.897Z,25.77
2023-01-05T12:02:22.928Z,24.15
2023-01-05T12:04:47.019Z,30.58
2023-01-05T12:07:11.804Z,29.90
2023-01-05T12:09:41.507Z,27.20
2023-01-05T12:11:55.778Z,29.80
2023-01-05T12:14:11.604Z,22.95
2023-01-05T12:16:30.154Z,24.73
2023-01-05T12:19:03.307Z,22.33
2023-01-05T12:21:23.471Z,31.48
2023-01-05T12:23:55.878Z,28.90
2023-01-05T12:26:07.436Z,35.17
2023-01-05T12:28:51.772Z,30.85
2023-01-05T12:33:44.568Z,35.97
2023-01-05T12:34:30.164Z,33.75
2023-01-05T12:36:46.692Z,28.58
2023-01-05T12:39:12.151Z,33.92
2023-01-05T12:45:04.098Z,15.90
2023-01-05T12:47:22.768Z,27.33
2023-01-05T12:49:30.856Z,26.85
2023-01-05T12:51:42.036Z,22.30
2023-01-05T12:53:53.572Z,24.27
2023-01-05T12:56:01.533Z,28.92
2023-01-05T12:58:15.213Z,23.50
2023-01-05T13:00:21.916Z,33.70
2023-01-05T13:02:34.892Z,25.48
2023-01-05T13:04:49.355Z,26.88
2023-01-05T13:06:59.958Z,25.63
2023-01-05T13:09:07.381Z,30.40
2023-01-05T13:11:19.369Z,25.42
2023-01-05T13:14:00.312Z,23.92
2023-01-05T13:16:59.610Z,28.27
2023-01-05T13:19:19.464Z,21.35
2023-01-05T13:21:39.775Z,22.27
2023-01-05T13:23:54.268Z,24.83
2023-01-05T13:26:09.876Z,20.02
2023-01-05T13:28:21.509Z,27.35
2023-01-05T13:30:34.677Z,17.33
2023-01-05T13:35:19.717Z,27.45
2023-01-05T13:38:22.202Z,27.05
2023-01-05T13:40:53.514Z,27.92
2023-01-05T13:43:23.062Z,23.45
2023-01-05T13:45:48.708Z,30.83
2023-01-05T13:48:13.063Z,27.40
2023-01-05T13:50:30.923Z,31.58
2023-01-05T13:52:49.805Z,24.00
2023-01-05T13:55:02.191Z,22.75
2023-01-05T13:58:06.110Z,25.75
2023-01-05T14:00:51.509Z,31.55
2023-01-05T14:03:08.400Z,29.08
2023-01-05T14:05:40.864Z,25.90
2023-01-05T14:08:11.397Z,25.20
2023-01-05T14:10:30.963Z,26.48
2023-01-05T14:12:48.725Z,26.48
2023-01-05T14:15:59.152Z,26.75
2023-01-05T14:18:17.894Z,23.95
2023-01-05T14:20:50.800Z,26.67
2023-01-05T14:22:55.682Z,19.15
2023-01-05T14:25:00.657Z,24.58
2023-01-05T14:27:11.088Z,26.33
2023-01-05T14:29:15.918Z,23.35
2023-01-05T14:31:40.627Z,23.48
2023-01-05T14:33:53.211Z,19.67
2023-01-05T14:35:58.196Z,23.05
2023-01-05T14:38:05.025Z,21.50
2023-01-05T14:40:21.446Z,36.38
2023-01-05T14:42:53.605Z,19.40
2023-01-05T14:45:13.098Z,21.88
2023-01-05T14:47:37.154Z,22.70
2023-01-05T14:49:46.686Z,24.02
2023-01-05T14:51:57.359Z,18.27
2023-01-05T14:54:03.746Z,18.60
2023-01-05T14:56:49.714Z,17.30
2023-01-05T15:02:03.011Z,25.05
2023-01-05T15:07:19.364Z,13.80
2023-01-05T15:09:53.447Z,20.75
2023-01-05T15:12:20.891Z,17.13
2023-01-05T15:14:46.192Z,26.30
2023-01-05T15:17:42.394Z,16.73
2023-01-05T15:20:01.015Z,18.80
2023-01-05T15:22:38.000Z,19.73
2023-01-05T15:25:13.609Z,30.15
2023-01-05T15:27:45.980Z,18.65
2023-01-05T15:30:02.781Z,25.15
2023-01-05T15:32:14.174Z,20.42
2023-01-05T15:34:22.744Z,15.98
2023-01-05T15:36:31.797Z,22.15
2023-01-05T15:38:47.370Z,21.27
2023-01-05T15:40:53.523Z,19.75
2023-01-05T15:43:01.785Z,16.80
2023-01-05T15:45:16.263Z,18.42
2023-01-05T15:47:22.419Z,12.85
2023-01-05T15:49:32.918Z,14.55
2023-01-05T15:51:40.298Z,12.88
2023-01-05T15:53:56.833Z,16.13
2023-01-05T15:56:27.202Z,14.98
2023-01-05T15:58:35.949Z,14.25
2023-01-05T16:00:40.980Z,14.50
2023-01-05T16:02:48.637Z,11.80
2023-01-05T16:05:12.355Z,14.15
2023-01-05T16:07:19.967Z,14.75
2023-01-05T16:09:37.899Z,18.70
2023-01-05T16:11:51.074Z,15.73
2023-01-05T16:16:43.320Z,12.52
2023-01-05T16:18:46.533Z,19.45
2023-01-05T16:20:52.533Z,21.60
2023-01-05T16:23:08.223Z,21.40
2023-01-05T16:25:17.913Z,24.45
2023-01-05T16:27:23.866Z,19.77
2023-01-05T16:29:40.986Z,13.63
2023-01-05T16:31:55.738Z,18.27
2023-01-05T16:34:13.574Z,16.27
2023-01-05T16:36:23.681Z,17.75
2023-01-05T16:38:31.018Z,18.63
2023-01-05T16:40:39.263Z,18.05
2023-01-05T16:42:52.601Z,18.58
2023-01-05T16:45:00.236Z,15.10
2023-01-05T16:47:13.450Z,20.50
2023-01-05T16:49:57.290Z,16.98
2023-01-05T16:52:04.053Z,18.42
2023-01-05T16:54:16.813Z,15.18
2023-01-05T16:56:48.938Z,17.00
2023-01-05T16:58:53.794Z,15.00
2023-01-05T17:01:30.953Z,18.15
2023-01-05T17:03:35.890Z,15.38
2023-01-05T17:05:40.736Z,15.38
2023-01-05T17:07:46.780Z,13.18
2023-01-05T17:09:52.474Z,17.98
2023-01-05T17:12:00.927Z,13.18
2023-01-05T17:14:06.156Z,18.63
2023-01-05T17:16:14.020Z,14.20
2023-01-05T17:20:30.900Z,14.43
2023-01-05T17:22:35.916Z,16.50
2023-01-05T17:24:41.208Z,16.45
2023-01-05T17:26:46.915Z,15.82
2023-01-05T17:33:39.510Z,16.02
2023-01-05T17:35:49.449Z,16.33
2023-01-05T17:37:57.357Z,19.38
2023-01-05T17:40:04.339Z,23.65
2023-01-05T17:42:23.718Z,17.48
2023-01-05T17:44:34.658Z,19.65
2023-01-05T17:46:44.806Z,17.95
2023-01-05T17:48:50.309Z,19.45
2023-01-05T17:50:55.593Z,17.50
2023-01-05T17:53:01.224Z,17.42
2023-01-05T17:55:06.481Z,21.70
2023-01-05T17:57:13.853Z,16.15
2023-01-05T17:59:18.770Z,17.88
2023-01-05T18:01:28.225Z,15.23
2023-01-05T18:03:35.750Z,14.27
2023-01-05T18:05:40.639Z,17.25
2023-01-05T18:07:45.876Z,14.43
2023-01-05T18:09:50.676Z,20.58
2023-01-05T18:11:55.790Z,12.90
2023-01-05T18:14:00.787Z,16.23
2023-01-05T18:16:09.597Z,14.18
2023-01-05T18:18:18.114Z,15.88
2023-01-05T18:20:23.134Z,19.83
2023-01-05T18:24:33.010Z,11.80
2023-01-05T18:26:37.794Z,15.63
2023-01-05T18:28:42.691Z,22.15
2023-01-05T18:30:47.588Z,17.23
2023-01-05T18:32:52.732Z,20.80
2023-01-05T18:35:05.685Z,20.27
2023-01-05T18:37:21.452Z,17.33
2023-01-05T18:39:27.470Z,20.77
2023-01-05T18:41:35.299Z,20.95
2023-01-05T18:43:40.473Z,23.88
2023-01-05T18:45:45.489Z,17.52
2023-01-05T18:47:50.318Z,15.43
2023-01-05T18:49:57.747Z,18.42
2023-01-05T18:52:05.647Z,12.60
2023-01-05T18:54:19.971Z,18.08
2023-01-05T18:56:25.511Z,18.90
2023-01-05T18:58:30.851Z,17.65
2023-01-05T19:00:35.993Z,16.13
2023-01-05T19:02:43.250Z,14.93
2023-01-05T19:04:48.004Z,19.33
2023-01-05T19:06:53.010Z,15.52
2023-01-05T19:09:04.267Z,13.75
2023-01-05T19:11:16.727Z,13.15
2023-01-05T19:13:21.701Z,15.75
2023-01-05T19:15:26.591Z,20.63
2023-01-05T19:17:34.436Z,24.10
2023-01-05T19:19:42.508Z,20.20
2023-01-05T19:21:47.997Z,19.10
2023-01-05T19:23:59.565Z,18.10
2023-01-05T19:26:10.792Z,20.08
2023-01-05T19:28:15.515Z,22.38
2023-01-05T19:30:22.434Z,28.77
2023-01-05T19:32:30.053Z,21.75
2023-01-05T19:34:37.604Z,22.00
2023-01-05T19:36:43.288Z,21.27
2023-01-05T19:38:49.229Z,22.55
2023-01-05T19:40:54.714Z,23.17
2023-01-05T19:43:06.591Z,27.25
2023-01-05T19:45:12.385Z,30.08
2023-01-05T19:47:17.990Z,22.05
2023-01-05T19:49:26.151Z,19.65
2023-01-05T19:51:34.779Z,34.55
2023-01-05T19:53:42.600Z,26.08
2023-01-05T19:55:47.551Z,21.88
2023-01-05T19:57:52.413Z,25.17
2023-01-05T20:00:02.177Z,23.73
2023-01-05T20:02:08.518Z,13.52
2023-01-05T20:04:14.106Z,24.58
2023-01-05T20:06:20.913Z,15.30
2023-01-05T20:08:25.883Z,17.00
2023-01-05T20:10:32.780Z,22.50
2023-01-05T20:12:37.471Z,16.98
2023-01-05T20:14:42.392Z,15.65
2023-01-05T20:16:51.561Z,23.13
2023-01-05T20:18:58.579Z,24.63
2023-01-05T20:21:03.997Z,19.48
2023-01-05T20:23:09.321Z,18.48
2023-01-05T20:25:14.146Z,18.55
2023-01-05T20:27:19.551Z,15.43
2023-01-05T20:29:25.514Z,24.50
2023-01-05T20:31:33.520Z,19.58
2023-01-05T20:33:41.071Z,23.67
2023-01-05T20:35:45.844Z,16.85
2023-01-05T20:37:50.540Z,12.18
2023-01-05T20:39:58.460Z,17.83
2023-01-05T20:42:05.126Z,21.83
2023-01-05T20:44:12.648Z,16.42
2023-01-05T20:46:19.229Z,15.25
2023-01-05T20:48:24.024Z,14.55
2023-01-05T20:50:34.555Z,15.00
2023-01-05T20:52:42.411Z,11.75
2023-01-05T20:54:47.271Z,10.80
2023-01-05T20:56:52.011Z,13.80
2023-01-05T20:58:58.794Z,17.55
2023-01-05T21:01:10.205Z,12.98
2023-01-05T21:03:16.719Z,13.38
2023-01-05T21:05:21.847Z,10.75
2023-01-05T21:07:30.095Z,15.90
2023-01-05T21:09:35.087Z,15.82
2023-01-05T21:11:40.936Z,11.43
2023-01-05T21:13:46.770Z,10.32
2023-01-05T21:16:00.129Z,13.35
2023-01-05T21:18:07.139Z,10.13
2023-01-05T21:20:16.209Z,15.32
2023-01-05T21:22:23.602Z,15.55
2023-01-05T21:24:34.458Z,15.70
2023-01-05T21:26:41.841Z,13.57
2023-01-05T21:28:52.880Z,17.20
2023-01-05T21:30:59.994Z,8.30
2023-01-05T21:33:04.930Z,12.55
2023-01-05T21:35:11.026Z,10.32
2023-01-05T21:37:16.537Z,17.83
2023-01-05T21:39:23.416Z,10.43
2023-01-05T21:41:43.578Z,15.57
2023-01-05T21:43:49.185Z,11.43
2023-01-05T21:45:56.948Z,11.95
2023-01-05T21:48:04.117Z,15.00
2023-01-05T21:50:11.365Z,19.00
2023-01-05T21:52:28.734Z,10.88
2023-01-05T21:54:56.679Z,12.27
2023-01-05T21:57:04.867Z,14.98
2023-01-05T21:59:15.936Z,10.10
2023-01-05T22:01:21.066Z,12.50
2023-01-05T22:03:28.825Z,11.38
2023-01-05T22:05:34.105Z,9.05
2023-01-05T22:07:39.070Z,10.27
2023-01-05T22:09:44.079Z,11.57
2023-01-05T22:11:49.053Z,8.82
2023-01-05T22:13:57.427Z,12.98
2023-01-05T22:16:05.192Z,14.30
2023-01-05T22:18:10.199Z,12.50
2023-01-05T22:20:19.967Z,18.33
2023-01-05T22:22:25.763Z,12.10
2023-01-05T22:24:39.451Z,18.17
2023-01-05T22:26:44.205Z,11.45
2023-01-05T22:28:50.471Z,11.02
2023-01-05T22:31:05.448Z,10.88
2023-01-05T22:33:10.675Z,18.48
2023-01-05T22:35:15.603Z,20.45
2023-01-05T22:37:20.418Z,8.45
2023-01-05T22:39:25.501Z,11.40
2023-01-05T22:41:33.743Z,10.13
2023-01-05T22:43:43.204Z,9.70
2023-01-05T22:45:48.088Z,9.63
2023-01-05T22:47:55.513Z,15.25
2023-01-05T22:50:10.813Z,12.73
2023-01-05T22:52:19.508Z,10.98
2023-01-05T22:54:28.785Z,10.45
2023-01-05T22:56:43.336Z,13.50
2023-01-05T22:58:48.638Z,14.70
2023-01-05T23:00:53.363Z,11.05
2023-01-05T23:03:02.508Z,12.10
2023-01-05T23:05:12.586Z,13.85
2023-01-05T23:07:22.703Z,12.18
2023-01-05T23:09:30.870Z,10.32
2023-01-05T23:11:38.027Z,11.40
2023-01-05T23:13:45.060Z,7.55
2023-01-05T23:15:56.940Z,8.38
2023-01-05T23:18:04.470Z,12.98
2023-01-05T23:20:11.447Z,5.93
2023-01-05T23:22:16.464Z,11.82
2023-01-05T23:24:21.514Z,8.60
2023-01-05T23:26:30.451Z,8.13
2023-01-05T23:28:35.671Z,6.63
2023-01-05T23:30:40.615Z,9.82
2023-01-05T23:32:45.626Z,6.25
2023-01-05T23:34:53.105Z,5.85
2023-01-05T23:37:00.429Z,5.95
2023-01-05T23:39:05.157Z,6.05
2023-01-05T23:41:11.110Z,5.65
2023-01-05T23:43:17.012Z,8.40
2023-01-05T23:45:22.043Z,7.82
2023-01-05T23:47:29.575Z,10.73
2023-01-05T23:49:34.363Z,5.57
2023-01-05T23:51:41.788Z,4.78
2023-01-05T23:53:49.083Z,7.68
2023-01-05T23:55:57.259Z,7.07
2023-01-05T23:58:02.530Z,8.73
